sensor_id;sensor_type;location;lat;lon;timestamp;P1;durP1;ratioP1;P2;durP2;ratioP2
44304;SDS011;30019;50.576;8.568;2022-08-27T00:01:06;17.95;;;11.77;;
44304;SDS011;30019;50.576;8.568;2022-08-27T00:03:32;17.92;;;11.63;;
44304;SDS011;30019;50.576;8.568;2022-08-27T00:05:58;17.55;;;12.07;;
44304;SDS011;30019;50.576;8.568;2022-08-27T00:08:24;19.85;;;11.75;;
44304;SDS011;30019;50.576;8.568;2022-08-27T00:10:49;20.08;;;11.93;;
44304;SDS011;30019;50.576;8.568;2022-08-27T00:13:15;22.27;;;12.10;;
44304;SDS011;30019;50.576;8.568;2022-08-27T00:15:41;24.70;;;11.73;;
44304;SDS011;30019;50.576;8.568;2022-08-27T00:18:06;20.20;;;11.00;;
44304;SDS011;30019;50.576;8.568;2022-08-27T00:20:32;17.52;;;11.82;;
44304;SDS011;30019;50.576;8.568;2022-08-27T00:22:58;25.77;;;12.37;;
44304;SDS011;30019;50.576;8.568;2022-08-27T00:25:24;17.62;;;11.57;;
44304;SDS011;30019;50.576;8.568;2022-08-27T00:27:51;22.45;;;11.85;;
44304;SDS011;30019;50.576;8.568;2022-08-27T00:30:17;20.90;;;10.98;;
44304;SDS011;30019;50.576;8.568;2022-08-27T00:32:44;17.65;;;10.65;;
44304;SDS011;30019;50.576;8.568;2022-08-27T00:35:10;24.60;;;10.95;;
44304;SDS011;30019;50.576;8.568;2022-08-27T00:37:37;16.08;;;10.65;;
44304;SDS011;30019;50.576;8.568;2022-08-27T00:40:04;16.27;;;11.02;;
44304;SDS011;30019;50.576;8.568;2022-08-27T00:42:32;14.77;;;10.98;;
44304;SDS011;30019;50.576;8.568;2022-08-27T00:44:57;16.30;;;10.48;;
44304;SDS011;30019;50.576;8.568;2022-08-27T00:47:24;15.32;;;11.00;;
44304;SDS011;30019;50.576;8.568;2022-08-27T00:49:55;16.58;;;11.15;;
44304;SDS011;30019;50.576;8.568;2022-08-27T00:52:29;23.38;;;11.10;;
44304;SDS011;30019;50.576;8.568;2022-08-27T00:55:08;19.92;;;11.10;;
44304;SDS011;30019;50.576;8.568;2022-08-27T00:57:41;19.70;;;11.25;;
44304;SDS011;30019;50.576;8.568;2022-08-27T01:00:32;17.08;;;10.77;;
44304;SDS011;30019;50.576;8.568;2022-08-27T01:02:57;14.80;;;10.25;;
44304;SDS011;30019;50.576;8.568;2022-08-27T01:05:23;19.85;;;10.63;;
44304;SDS011;30019;50.576;8.568;2022-08-27T01:07:50;16.70;;;9.65;;
44304;SDS011;30019;50.576;8.568;2022-08-27T01:10:20;18.52;;;9.98;;
44304;SDS011;30019;50.576;8.568;2022-08-27T01:12:48;18.83;;;10.60;;
44304;SDS011;30019;50.576;8.568;2022-08-27T01:15:16;14.93;;;9.82;;
44304;SDS011;30019;50.576;8.568;2022-08-27T01:17:43;18.58;;;10.32;;
44304;SDS011;30019;50.576;8.568;2022-08-27T01:20:25;14.40;;;9.65;;
44304;SDS011;30019;50.576;8.568;2022-08-27T01:25:42;15.38;;;9.95;;
44304;SDS011;30019;50.576;8.568;2022-08-27T01:28:09;19.52;;;10.57;;
44304;SDS011;30019;50.576;8.568;2022-08-27T01:30:36;18.90;;;10.48;;
44304;SDS011;30019;50.576;8.568;2022-08-27T01:33:13;16.58;;;9.73;;
44304;SDS011;30019;50.576;8.568;2022-08-27T01:35:41;18.50;;;9.93;;
44304;SDS011;30019;50.576;8.568;2022-08-27T01:38:08;19.87;;;9.60;;
44304;SDS011;30019;50.576;8.568;2022-08-27T01:40:34;18.65;;;10.00;;
44304;SDS011;30019;50.576;8.568;2022-08-27T01:43:01;15.18;;;9.57;;
44304;SDS011;30019;50.576;8.568;2022-08-27T01:45:31;15.70;;;9.65;;
44304;SDS011;30019;50.576;8.568;2022-08-27T01:47:59;21.75;;;10.00;;
44304;SDS011;30019;50.576;8.568;2022-08-27T01:50:27;17.10;;;10.13;;
44304;SDS011;30019;50.576;8.568;2022-08-27T01:52:56;17.48;;;10.05;;
44304;SDS011;30019;50.576;8.568;2022-08-27T01:55:25;18.55;;;9.57;;
44304;SDS011;30019;50.576;8.568;2022-08-27T01:57:51;16.35;;;10.45;;
44304;SDS011;30019;50.576;8.568;2022-08-27T02:00:20;18.73;;;10.10;;
44304;SDS011;30019;50.576;8.568;2022-08-27T02:02:48;20.05;;;10.20;;
44304;SDS011;30019;50.576;8.568;2022-08-27T02:05:14;20.80;;;10.45;;
44304;SDS011;30019;50.576;8.568;2022-08-27T02:07:40;15.43;;;10.23;;
44304;SDS011;30019;50.576;8.568;2022-08-27T02:10:07;16.60;;;10.13;;
44304;SDS011;30019;50.576;8.568;2022-08-27T02:12:35;18.98;;;10.30;;
44304;SDS011;30019;50.576;8.568;2022-08-27T02:15:01;16.98;;;10.32;;
44304;SDS011;30019;50.576;8.568;2022-08-27T02:17:27;18.15;;;10.35;;
44304;SDS011;30019;50.576;8.568;2022-08-27T02:19:53;15.48;;;9.38;;
44304;SDS011;30019;50.576;8.568;2022-08-27T02:22:18;17.77;;;10.38;;
44304;SDS011;30019;50.576;8.568;2022-08-27T02:24:44;14.68;;;9.20;;
44304;SDS011;30019;50.576;8.568;2022-08-27T02:27:10;21.62;;;9.60;;
44304;SDS011;30019;50.576;8.568;2022-08-27T02:29:36;12.93;;;8.90;;
44304;SDS011;30019;50.576;8.568;2022-08-27T02:32:02;15.55;;;9.57;;
44304;SDS011;30019;50.576;8.568;2022-08-27T02:34:27;14.48;;;10.13;;
44304;SDS011;30019;50.576;8.568;2022-08-27T02:36:53;17.60;;;8.82;;
44304;SDS011;30019;50.576;8.568;2022-08-27T02:39:19;15.25;;;9.98;;
44304;SDS011;30019;50.576;8.568;2022-08-27T02:41:45;15.25;;;8.88;;
44304;SDS011;30019;50.576;8.568;2022-08-27T02:44:12;14.18;;;9.50;;
44304;SDS011;30019;50.576;8.568;2022-08-27T02:46:38;15.93;;;9.20;;
44304;SDS011;30019;50.576;8.568;2022-08-27T02:49:04;18.48;;;9.10;;
44304;SDS011;30019;50.576;8.568;2022-08-27T02:51:30;20.95;;;9.77;;
44304;SDS011;30019;50.576;8.568;2022-08-27T02:53:55;20.15;;;8.82;;
44304;SDS011;30019;50.576;8.568;2022-08-27T02:56:21;16.87;;;8.82;;
44304;SDS011;30019;50.576;8.568;2022-08-27T02:58:47;15.85;;;8.70;;
44304;SDS011;30019;50.576;8.568;2022-08-27T03:01:13;14.93;;;8.50;;
44304;SDS011;30019;50.576;8.568;2022-08-27T03:03:39;15.05;;;8.77;;
44304;SDS011;30019;50.576;8.568;2022-08-27T03:06:05;14.48;;;8.82;;
44304;SDS011;30019;50.576;8.568;2022-08-27T03:08:31;14.48;;;8.30;;
44304;SDS011;30019;50.576;8.568;2022-08-27T03:10:57;13.93;;;8.95;;
44304;SDS011;30019;50.576;8.568;2022-08-27T03:13:23;12.70;;;8.50;;
44304;SDS011;30019;50.576;8.568;2022-08-27T03:15:50;9.18;;;7.40;;
44304;SDS011;30019;50.576;8.568;2022-08-27T03:18:16;14.13;;;8.05;;
44304;SDS011;30019;50.576;8.568;2022-08-27T03:20:49;13.18;;;8.20;;
44304;SDS011;30019;50.576;8.568;2022-08-27T03:23:17;13.95;;;7.50;;
44304;SDS011;30019;50.576;8.568;2022-08-27T03:25:54;11.95;;;7.43;;
44304;SDS011;30019;50.576;8.568;2022-08-27T03:28:23;14.32;;;7.68;;
44304;SDS011;30019;50.576;8.568;2022-08-27T03:30:52;15.45;;;7.78;;
44304;SDS011;30019;50.576;8.568;2022-08-27T03:33:22;10.23;;;6.95;;
44304;SDS011;30019;50.576;8.568;2022-08-27T03:35:48;12.25;;;7.78;;
44304;SDS011;30019;50.576;8.568;2022-08-27T03:38:14;14.38;;;7.82;;
44304;SDS011;30019;50.576;8.568;2022-08-27T03:40:40;17.90;;;8.32;;
44304;SDS011;30019;50.576;8.568;2022-08-27T03:43:07;15.45;;;8.48;;
44304;SDS011;30019;50.576;8.568;2022-08-27T03:45:35;12.37;;;8.23;;
44304;SDS011;30019;50.576;8.568;2022-08-27T03:48:01;11.45;;;7.70;;
44304;SDS011;30019;50.576;8.568;2022-08-27T03:50:27;15.60;;;9.13;;
44304;SDS011;30019;50.576;8.568;2022-08-27T03:52:53;16.60;;;8.73;;
44304;SDS011;30019;50.576;8.568;2022-08-27T03:55:18;13.10;;;8.10;;
44304;SDS011;30019;50.576;8.568;2022-08-27T03:57:44;17.60;;;8.30;;
44304;SDS011;30019;50.576;8.568;2022-08-27T04:00:10;11.50;;;8.18;;
44304;SDS011;30019;50.576;8.568;2022-08-27T04:02:38;14.65;;;7.43;;
44304;SDS011;30019;50.576;8.568;2022-08-27T04:05:05;11.95;;;7.87;;
44304;SDS011;30019;50.576;8.568;2022-08-27T04:07:32;13.77;;;7.37;;
44304;SDS011;30019;50.576;8.568;2022-08-27T04:09:58;10.02;;;7.72;;
44304;SDS011;30019;50.576;8.568;2022-08-27T04:12:23;12.57;;;7.57;;
44304;SDS011;30019;50.576;8.568;2022-08-27T04:14:50;12.98;;;7.43;;
44304;SDS011;30019;50.576;8.568;2022-08-27T04:17:16;10.32;;;7.05;;
44304;SDS011;30019;50.576;8.568;2022-08-27T04:19:41;11.90;;;7.45;;
44304;SDS011;30019;50.576;8.568;2022-08-27T04:22:07;13.38;;;7.53;;
44304;SDS011;30019;50.576;8.568;2022-08-27T04:24:34;14.77;;;7.30;;
44304;SDS011;30019;50.576;8.568;2022-08-27T04:27:00;12.45;;;7.70;;
44304;SDS011;30019;50.576;8.568;2022-08-27T04:29:26;15.38;;;8.30;;
44304;SDS011;30019;50.576;8.568;2022-08-27T04:31:52;12.20;;;7.60;;
44304;SDS011;30019;50.576;8.568;2022-08-27T04:34:18;11.18;;;6.93;;
44304;SDS011;30019;50.576;8.568;2022-08-27T04:36:44;9.70;;;6.85;;
44304;SDS011;30019;50.576;8.568;2022-08-27T04:39:10;13.35;;;7.10;;
44304;SDS011;30019;50.576;8.568;2022-08-27T04:41:37;14.43;;;7.97;;
44304;SDS011;30019;50.576;8.568;2022-08-27T04:44:05;11.02;;;7.22;;
44304;SDS011;30019;50.576;8.568;2022-08-27T04:46:33;17.33;;;10.52;;
44304;SDS011;30019;50.576;8.568;2022-08-27T04:49:02;12.23;;;7.32;;
44304;SDS011;30019;50.576;8.568;2022-08-27T04:51:30;12.70;;;7.35;;
44304;SDS011;30019;50.576;8.568;2022-08-27T04:53:56;9.65;;;7.18;;
44304;SDS011;30019;50.576;8.568;2022-08-27T04:56:22;10.98;;;7.00;;
44304;SDS011;30019;50.576;8.568;2022-08-27T04:58:49;14.93;;;7.50;;
44304;SDS011;30019;50.576;8.568;2022-08-27T05:01:16;10.30;;;6.43;;
44304;SDS011;30019;50.576;8.568;2022-08-27T05:03:44;11.63;;;6.97;;
44304;SDS011;30019;50.576;8.568;2022-08-27T05:06:10;9.57;;;6.53;;
44304;SDS011;30019;50.576;8.568;2022-08-27T05:08:36;11.80;;;6.28;;
44304;SDS011;30019;50.576;8.568;2022-08-27T05:11:05;8.98;;;6.53;;
44304;SDS011;30019;50.576;8.568;2022-08-27T05:13:35;14.80;;;6.53;;
44304;SDS011;30019;50.576;8.568;2022-08-27T05:16:04;10.77;;;6.57;;
44304;SDS011;30019;50.576;8.568;2022-08-27T05:18:32;10.35;;;7.30;;
44304;SDS011;30019;50.576;8.568;2022-08-27T05:20:59;12.13;;;6.95;;
44304;SDS011;30019;50.576;8.568;2022-08-27T05:23:24;12.13;;;7.80;;
44304;SDS011;30019;50.576;8.568;2022-08-27T05:25:52;12.07;;;7.12;;
44304;SDS011;30019;50.576;8.568;2022-08-27T05:28:19;9.65;;;7.03;;
44304;SDS011;30019;50.576;8.568;2022-08-27T05:30:47;12.37;;;7.07;;
44304;SDS011;30019;50.576;8.568;2022-08-27T05:33:19;10.70;;;6.50;;
44304;SDS011;30019;50.576;8.568;2022-08-27T05:35:49;9.20;;;6.37;;
44304;SDS011;30019;50.576;8.568;2022-08-27T05:38:17;8.00;;;6.18;;
44304;SDS011;30019;50.576;8.568;2022-08-27T05:40:44;17.17;;;6.97;;
44304;SDS011;30019;50.576;8.568;2022-08-27T05:43:12;12.55;;;8.00;;
44304;SDS011;30019;50.576;8.568;2022-08-27T05:45:45;10.93;;;8.20;;
44304;SDS011;30019;50.576;8.568;2022-08-27T05:48:12;8.73;;;6.62;;
44304;SDS011;30019;50.576;8.568;2022-08-27T05:50:39;9.70;;;6.37;;
44304;SDS011;30019;50.576;8.568;2022-08-27T05:53:07;14.00;;;6.07;;
44304;SDS011;30019;50.576;8.568;2022-08-27T05:55:38;12.10;;;6.90;;
44304;SDS011;30019;50.576;8.568;2022-08-27T05:58:05;13.95;;;6.57;;
44304;SDS011;30019;50.576;8.568;2022-08-27T06:00:32;11.82;;;6.87;;
44304;SDS011;30019;50.576;8.568;2022-08-27T06:03:19;11.30;;;6.35;;
44304;SDS011;30019;50.576;8.568;2022-08-27T06:05:44;10.05;;;6.60;;
44304;SDS011;30019;50.576;8.568;2022-08-27T06:08:10;8.50;;;6.32;;
44304;SDS011;30019;50.576;8.568;2022-08-27T06:10:38;11.90;;;6.45;;
44304;SDS011;30019;50.576;8.568;2022-08-27T06:13:05;7.80;;;5.85;;
44304;SDS011;30019;50.576;8.568;2022-08-27T06:15:30;8.95;;;5.80;;
44304;SDS011;30019;50.576;8.568;2022-08-27T06:17:56;15.52;;;6.12;;
44304;SDS011;30019;50.576;8.568;2022-08-27T06:20:22;10.98;;;6.20;;
44304;SDS011;30019;50.576;8.568;2022-08-27T06:22:47;9.52;;;5.90;;
44304;SDS011;30019;50.576;8.568;2022-08-27T06:25:13;10.63;;;5.30;;
44304;SDS011;30019;50.576;8.568;2022-08-27T06:27:38;21.83;;;15.10;;
44304;SDS011;30019;50.576;8.568;2022-08-27T06:30:04;8.20;;;5.53;;
44304;SDS011;30019;50.576;8.568;2022-08-27T06:32:30;7.82;;;5.12;;
44304;SDS011;30019;50.576;8.568;2022-08-27T06:34:56;9.30;;;5.15;;
44304;SDS011;30019;50.576;8.568;2022-08-27T06:37:21;6.97;;;4.93;;
44304;SDS011;30019;50.576;8.568;2022-08-27T06:39:47;5.72;;;4.75;;
44304;SDS011;30019;50.576;8.568;2022-08-27T06:42:12;6.43;;;4.70;;
44304;SDS011;30019;50.576;8.568;2022-08-27T06:44:38;5.22;;;4.05;;
44304;SDS011;30019;50.576;8.568;2022-08-27T06:47:04;4.95;;;3.80;;
44304;SDS011;30019;50.576;8.568;2022-08-27T06:49:30;7.40;;;4.50;;
44304;SDS011;30019;50.576;8.568;2022-08-27T06:51:57;4.95;;;3.97;;
44304;SDS011;30019;50.576;8.568;2022-08-27T06:54:23;4.30;;;3.90;;
44304;SDS011;30019;50.576;8.568;2022-08-27T06:56:49;6.55;;;3.87;;
44304;SDS011;30019;50.576;8.568;2022-08-27T06:59:15;5.10;;;3.50;;
44304;SDS011;30019;50.576;8.568;2022-08-27T07:01:45;9.15;;;3.62;;
44304;SDS011;30019;50.576;8.568;2022-08-27T07:04:15;7.80;;;3.33;;
44304;SDS011;30019;50.576;8.568;2022-08-27T07:06:43;3.60;;;3.17;;
44304;SDS011;30019;50.576;8.568;2022-08-27T07:09:09;3.12;;;2.83;;
44304;SDS011;30019;50.576;8.568;2022-08-27T07:11:36;4.70;;;3.10;;
44304;SDS011;30019;50.576;8.568;2022-08-27T07:14:02;3.42;;;2.80;;
44304;SDS011;30019;50.576;8.568;2022-08-27T07:16:30;4.90;;;3.17;;
44304;SDS011;30019;50.576;8.568;2022-08-27T07:18:56;5.20;;;3.05;;
44304;SDS011;30019;50.576;8.568;2022-08-27T07:21:24;5.78;;;3.03;;
44304;SDS011;30019;50.576;8.568;2022-08-27T07:23:51;6.30;;;2.95;;
44304;SDS011;30019;50.576;8.568;2022-08-27T07:26:18;5.18;;;3.28;;
44304;SDS011;30019;50.576;8.568;2022-08-27T07:28:45;5.05;;;2.90;;
44304;SDS011;30019;50.576;8.568;2022-08-27T07:31:11;3.97;;;2.95;;
44304;SDS011;30019;50.576;8.568;2022-08-27T07:33:40;3.45;;;2.53;;
44304;SDS011;30019;50.576;8.568;2022-08-27T07:36:06;4.45;;;2.58;;
44304;SDS011;30019;50.576;8.568;2022-08-27T07:38:32;2.67;;;2.37;;
44304;SDS011;30019;50.576;8.568;2022-08-27T07:40:58;3.10;;;2.35;;
44304;SDS011;30019;50.576;8.568;2022-08-27T07:43:24;2.72;;;2.50;;
44304;SDS011;30019;50.576;8.568;2022-08-27T07:48:34;2.17;;;1.98;;
44304;SDS011;30019;50.576;8.568;2022-08-27T07:51:00;3.45;;;2.00;;
44304;SDS011;30019;50.576;8.568;2022-08-27T07:53:29;2.15;;;1.90;;
44304;SDS011;30019;50.576;8.568;2022-08-27T07:56:00;1.73;;;1.62;;
44304;SDS011;30019;50.576;8.568;2022-08-27T07:58:27;1.60;;;1.50;;
44304;SDS011;30019;50.576;8.568;2022-08-27T08:00:54;1.83;;;1.40;;
44304;SDS011;30019;50.576;8.568;2022-08-27T08:03:19;3.03;;;1.80;;
44304;SDS011;30019;50.576;8.568;2022-08-27T08:05:45;2.33;;;1.35;;
44304;SDS011;30019;50.576;8.568;2022-08-27T08:08:12;2.35;;;1.70;;
44304;SDS011;30019;50.576;8.568;2022-08-27T08:10:38;2.65;;;1.48;;
44304;SDS011;30019;50.576;8.568;2022-08-27T08:13:05;1.50;;;1.40;;
44304;SDS011;30019;50.576;8.568;2022-08-27T08:15:31;1.58;;;1.40;;
44304;SDS011;30019;50.576;8.568;2022-08-27T08:17:58;1.77;;;1.67;;
44304;SDS011;30019;50.576;8.568;2022-08-27T08:20:23;3.25;;;1.40;;
44304;SDS011;30019;50.576;8.568;2022-08-27T08:22:49;1.58;;;1.48;;
44304;SDS011;30019;50.576;8.568;2022-08-27T08:25:15;1.98;;;1.60;;
44304;SDS011;30019;50.576;8.568;2022-08-27T08:27:41;1.85;;;1.40;;
44304;SDS011;30019;50.576;8.568;2022-08-27T08:30:07;1.48;;;1.33;;
44304;SDS011;30019;50.576;8.568;2022-08-27T08:32:34;5.70;;;1.85;;
44304;SDS011;30019;50.576;8.568;2022-08-27T08:35:00;1.73;;;1.50;;
44304;SDS011;30019;50.576;8.568;2022-08-27T08:37:25;1.62;;;1.40;;
44304;SDS011;30019;50.576;8.568;2022-08-27T08:39:51;3.97;;;1.52;;
44304;SDS011;30019;50.576;8.568;2022-08-27T08:42:29;3.25;;;1.50;;
44304;SDS011;30019;50.576;8.568;2022-08-27T08:44:55;1.70;;;1.60;;
44304;SDS011;30019;50.576;8.568;2022-08-27T08:47:24;1.85;;;1.75;;
44304;SDS011;30019;50.576;8.568;2022-08-27T08:50:07;2.85;;;1.58;;
44304;SDS011;30019;50.576;8.568;2022-08-27T08:55:32;1.73;;;1.55;;
44304;SDS011;30019;50.576;8.568;2022-08-27T08:58:11;2.95;;;1.48;;
44304;SDS011;30019;50.576;8.568;2022-08-27T09:00:55;2.50;;;1.70;;
44304;SDS011;30019;50.576;8.568;2022-08-27T09:03:23;1.60;;;1.50;;
44304;SDS011;30019;50.576;8.568;2022-08-27T09:06:03;1.60;;;1.50;;
44304;SDS011;30019;50.576;8.568;2022-08-27T09:08:35;3.70;;;1.70;;
44304;SDS011;30019;50.576;8.568;2022-08-27T09:13:41;1.80;;;1.70;;
44304;SDS011;30019;50.576;8.568;2022-08-27T09:16:12;1.55;;;1.45;;
44304;SDS011;30019;50.576;8.568;2022-08-27T09:18:38;2.10;;;1.62;;
44304;SDS011;30019;50.576;8.568;2022-08-27T09:21:17;1.70;;;1.40;;
44304;SDS011;30019;50.576;8.568;2022-08-27T09:23:57;1.40;;;1.30;;
44304;SDS011;30019;50.576;8.568;2022-08-27T09:26:29;2.70;;;1.48;;
44304;SDS011;30019;50.576;8.568;2022-08-27T09:28:57;1.92;;;1.58;;
44304;SDS011;30019;50.576;8.568;2022-08-27T09:31:40;1.60;;;1.23;;
44304;SDS011;30019;50.576;8.568;2022-08-27T09:34:32;2.37;;;1.65;;
44304;SDS011;30019;50.576;8.568;2022-08-27T09:37:05;1.98;;;1.80;;
44304;SDS011;30019;50.576;8.568;2022-08-27T09:40:04;1.80;;;1.70;;
44304;SDS011;30019;50.576;8.568;2022-08-27T09:45:13;1.75;;;1.55;;
44304;SDS011;30019;50.576;8.568;2022-08-27T09:50:16;2.30;;;1.70;;
44304;SDS011;30019;50.576;8.568;2022-08-27T09:52:56;1.60;;;1.50;;
44304;SDS011;30019;50.576;8.568;2022-08-27T09:55:34;4.80;;;1.60;;
44304;SDS011;30019;50.576;8.568;2022-08-27T09:58:18;3.42;;;1.75;;
44304;SDS011;30019;50.576;8.568;2022-08-27T10:00:46;2.60;;;1.98;;
44304;SDS011;30019;50.576;8.568;2022-08-27T10:03:12;2.70;;;1.87;;
44304;SDS011;30019;50.576;8.568;2022-08-27T10:05:43;1.98;;;1.60;;
44304;SDS011;30019;50.576;8.568;2022-08-27T10:11:04;1.80;;;1.70;;
44304;SDS011;30019;50.576;8.568;2022-08-27T10:16:36;3.33;;;1.90;;
44304;SDS011;30019;50.576;8.568;2022-08-27T10:22:28;1.85;;;1.75;;
44304;SDS011;30019;50.576;8.568;2022-08-27T10:25:18;1.95;;;1.77;;
44304;SDS011;30019;50.576;8.568;2022-08-27T10:27:50;2.05;;;1.95;;
44304;SDS011;30019;50.576;8.568;2022-08-27T10:41:44;1.92;;;1.75;;
44304;SDS011;30019;50.576;8.568;2022-08-27T10:47:54;1.92;;;1.83;;
44304;SDS011;30019;50.576;8.568;2022-08-27T10:53:47;3.08;;;2.50;;
44304;SDS011;30019;50.576;8.568;2022-08-27T10:56:35;1.75;;;1.65;;
44304;SDS011;30019;50.576;8.568;2022-08-27T11:02:05;1.65;;;1.55;;
44304;SDS011;30019;50.576;8.568;2022-08-27T11:04:44;2.97;;;2.08;;
44304;SDS011;30019;50.576;8.568;2022-08-27T11:07:31;1.70;;;1.60;;
44304;SDS011;30019;50.576;8.568;2022-08-27T11:10:04;2.80;;;2.08;;
44304;SDS011;30019;50.576;8.568;2022-08-27T11:12:38;1.70;;;1.60;;
44304;SDS011;30019;50.576;8.568;2022-08-27T11:17:41;1.98;;;1.83;;
44304;SDS011;30019;50.576;8.568;2022-08-27T11:20:18;6.43;;;1.85;;
44304;SDS011;30019;50.576;8.568;2022-08-27T11:22:53;3.65;;;1.98;;
44304;SDS011;30019;50.576;8.568;2022-08-27T11:25:33;2.20;;;1.98;;
44304;SDS011;30019;50.576;8.568;2022-08-27T11:28:25;2.15;;;1.95;;
44304;SDS011;30019;50.576;8.568;2022-08-27T11:30:59;2.10;;;2.00;;
44304;SDS011;30019;50.576;8.568;2022-08-27T11:33:36;2.30;;;2.10;;
44304;SDS011;30019;50.576;8.568;2022-08-27T11:44:26;2.37;;;1.65;;
44304;SDS011;30019;50.576;8.568;2022-08-27T11:47:06;2.62;;;2.40;;
44304;SDS011;30019;50.576;8.568;2022-08-27T11:49:34;3.47;;;1.83;;
44304;SDS011;30019;50.576;8.568;2022-08-27T11:52:08;4.07;;;2.35;;
44304;SDS011;30019;50.576;8.568;2022-08-27T11:54:46;2.53;;;1.87;;
44304;SDS011;30019;50.576;8.568;2022-08-27T11:57:15;5.53;;;2.08;;
44304;SDS011;30019;50.576;8.568;2022-08-27T11:59:55;3.95;;;2.30;;
44304;SDS011;30019;50.576;8.568;2022-08-27T12:02:26;2.20;;;2.00;;
44304;SDS011;30019;50.576;8.568;2022-08-27T12:05:04;2.92;;;1.80;;
44304;SDS011;30019;50.576;8.568;2022-08-27T12:07:34;2.20;;;1.92;;
44304;SDS011;30019;50.576;8.568;2022-08-27T12:10:17;1.95;;;1.80;;
44304;SDS011;30019;50.576;8.568;2022-08-27T12:13:21;2.37;;;1.77;;
44304;SDS011;30019;50.576;8.568;2022-08-27T12:18:56;3.28;;;1.80;;
44304;SDS011;30019;50.576;8.568;2022-08-27T12:27:13;2.00;;;1.90;;
44304;SDS011;30019;50.576;8.568;2022-08-27T12:33:04;8.02;;;1.92;;
44304;SDS011;30019;50.576;8.568;2022-08-27T12:35:41;2.05;;;1.70;;
44304;SDS011;30019;50.576;8.568;2022-08-27T12:38:21;2.75;;;1.90;;
44304;SDS011;30019;50.576;8.568;2022-08-27T12:40:57;2.15;;;1.80;;
44304;SDS011;30019;50.576;8.568;2022-08-27T12:43:32;2.22;;;2.08;;
44304;SDS011;30019;50.576;8.568;2022-08-27T12:46:06;2.28;;;1.90;;
44304;SDS011;30019;50.576;8.568;2022-08-27T12:48:40;2.20;;;2.00;;
44304;SDS011;30019;50.576;8.568;2022-08-27T12:51:13;1.75;;;1.65;;
44304;SDS011;30019;50.576;8.568;2022-08-27T12:56:21;1.60;;;1.50;;
44304;SDS011;30019;50.576;8.568;2022-08-27T13:04:44;1.90;;;1.75;;
44304;SDS011;30019;50.576;8.568;2022-08-27T13:07:12;3.28;;;1.90;;
44304;SDS011;30019;50.576;8.568;2022-08-27T13:09:48;2.03;;;1.83;;
44304;SDS011;30019;50.576;8.568;2022-08-27T13:12:15;6.25;;;3.20;;
44304;SDS011;30019;50.576;8.568;2022-08-27T13:14:42;3.92;;;1.80;;
44304;SDS011;30019;50.576;8.568;2022-08-27T13:17:08;4.43;;;1.58;;
44304;SDS011;30019;50.576;8.568;2022-08-27T13:19:48;3.45;;;2.20;;
44304;SDS011;30019;50.576;8.568;2022-08-27T13:22:35;5.80;;;2.00;;
44304;SDS011;30019;50.576;8.568;2022-08-27T13:25:03;2.35;;;2.05;;
44304;SDS011;30019;50.576;8.568;2022-08-27T13:27:32;2.45;;;2.15;;
44304;SDS011;30019;50.576;8.568;2022-08-27T13:30:07;5.18;;;2.00;;
44304;SDS011;30019;50.576;8.568;2022-08-27T13:32:35;2.55;;;2.05;;
44304;SDS011;30019;50.576;8.568;2022-08-27T13:35:02;2.25;;;1.87;;
44304;SDS011;30019;50.576;8.568;2022-08-27T13:37:33;3.35;;;1.80;;
44304;SDS011;30019;50.576;8.568;2022-08-27T13:40:02;1.70;;;1.60;;
44304;SDS011;30019;50.576;8.568;2022-08-27T13:42:28;1.85;;;1.75;;
44304;SDS011;30019;50.576;8.568;2022-08-27T13:44:59;2.05;;;1.75;;
44304;SDS011;30019;50.576;8.568;2022-08-27T13:47:26;2.90;;;1.77;;
44304;SDS011;30019;50.576;8.568;2022-08-27T13:50:00;5.50;;;1.55;;
44304;SDS011;30019;50.576;8.568;2022-08-27T13:52:33;1.77;;;1.60;;
44304;SDS011;30019;50.576;8.568;2022-08-27T13:55:21;1.87;;;1.75;;
44304;SDS011;30019;50.576;8.568;2022-08-27T13:57:48;1.83;;;1.73;;
44304;SDS011;30019;50.576;8.568;2022-08-27T14:02:49;1.85;;;1.75;;
44304;SDS011;30019;50.576;8.568;2022-08-27T14:05:45;2.70;;;1.85;;
44304;SDS011;30019;50.576;8.568;2022-08-27T14:08:11;1.67;;;1.58;;
44304;SDS011;30019;50.576;8.568;2022-08-27T14:10:44;2.03;;;1.92;;
44304;SDS011;30019;50.576;8.568;2022-08-27T14:13:22;5.43;;;1.90;;
44304;SDS011;30019;50.576;8.568;2022-08-27T14:15:50;2.55;;;2.35;;
44304;SDS011;30019;50.576;8.568;2022-08-27T14:20:53;2.97;;;1.70;;
44304;SDS011;30019;50.576;8.568;2022-08-27T14:23:20;3.17;;;1.58;;
44304;SDS011;30019;50.576;8.568;2022-08-27T14:25:47;3.30;;;1.50;;
44304;SDS011;30019;50.576;8.568;2022-08-27T14:28:13;1.83;;;1.70;;
44304;SDS011;30019;50.576;8.568;2022-08-27T14:30:39;4.53;;;1.95;;
44304;SDS011;30019;50.576;8.568;2022-08-27T14:33:04;1.55;;;1.33;;
44304;SDS011;30019;50.576;8.568;2022-08-27T14:35:31;1.83;;;1.67;;
44304;SDS011;30019;50.576;8.568;2022-08-27T14:37:59;2.08;;;1.87;;
44304;SDS011;30019;50.576;8.568;2022-08-27T14:40:29;2.00;;;1.90;;
44304;SDS011;30019;50.576;8.568;2022-08-27T14:42:55;2.90;;;1.60;;
44304;SDS011;30019;50.576;8.568;2022-08-27T14:45:21;1.60;;;1.50;;
44304;SDS011;30019;50.576;8.568;2022-08-27T14:47:47;1.67;;;1.48;;
44304;SDS011;30019;50.576;8.568;2022-08-27T14:50:15;1.80;;;1.70;;
44304;SDS011;30019;50.576;8.568;2022-08-27T14:52:40;7.28;;;1.70;;
44304;SDS011;30019;50.576;8.568;2022-08-27T14:55:07;1.30;;;1.30;;
44304;SDS011;30019;50.576;8.568;2022-08-27T14:57:33;1.50;;;1.40;;
44304;SDS011;30019;50.576;8.568;2022-08-27T14:59:59;1.80;;;1.70;;
44304;SDS011;30019;50.576;8.568;2022-08-27T15:02:25;2.30;;;1.70;;
44304;SDS011;30019;50.576;8.568;2022-08-27T15:04:50;1.67;;;1.58;;
44304;SDS011;30019;50.576;8.568;2022-08-27T15:07:16;1.85;;;1.45;;
44304;SDS011;30019;50.576;8.568;2022-08-27T15:09:43;1.50;;;1.40;;
44304;SDS011;30019;50.576;8.568;2022-08-27T15:12:10;3.40;;;1.58;;
44304;SDS011;30019;50.576;8.568;2022-08-27T15:14:37;1.15;;;1.15;;
44304;SDS011;30019;50.576;8.568;2022-08-27T15:17:04;1.40;;;1.30;;
44304;SDS011;30019;50.576;8.568;2022-08-27T15:19:31;1.73;;;1.62;;
44304;SDS011;30019;50.576;8.568;2022-08-27T15:22:02;2.05;;;1.52;;
44304;SDS011;30019;50.576;8.568;2022-08-27T15:24:46;1.23;;;1.12;;
44304;SDS011;30019;50.576;8.568;2022-08-27T15:27:16;1.87;;;1.12;;
44304;SDS011;30019;50.576;8.568;2022-08-27T15:29:42;1.45;;;1.35;;
44304;SDS011;30019;50.576;8.568;2022-08-27T15:32:09;3.85;;;1.70;;
44304;SDS011;30019;50.576;8.568;2022-08-27T15:34:48;1.70;;;1.58;;
44304;SDS011;30019;50.576;8.568;2022-08-27T15:37:13;2.53;;;1.67;;
44304;SDS011;30019;50.576;8.568;2022-08-27T15:39:39;1.70;;;1.60;;
44304;SDS011;30019;50.576;8.568;2022-08-27T15:42:04;2.00;;;1.77;;
44304;SDS011;30019;50.576;8.568;2022-08-27T15:44:32;1.95;;;1.73;;
44304;SDS011;30019;50.576;8.568;2022-08-27T15:46:58;2.55;;;1.83;;
44304;SDS011;30019;50.576;8.568;2022-08-27T15:49:23;2.33;;;1.90;;
44304;SDS011;30019;50.576;8.568;2022-08-27T15:51:49;1.80;;;1.60;;
44304;SDS011;30019;50.576;8.568;2022-08-27T15:54:15;5.53;;;1.98;;
44304;SDS011;30019;50.576;8.568;2022-08-27T15:56:41;3.28;;;1.90;;
44304;SDS011;30019;50.576;8.568;2022-08-27T15:59:06;1.98;;;1.80;;
44304;SDS011;30019;50.576;8.568;2022-08-27T16:01:33;3.35;;;1.95;;
44304;SDS011;30019;50.576;8.568;2022-08-27T16:04:00;2.22;;;2.03;;
44304;SDS011;30019;50.576;8.568;2022-08-27T16:06:27;7.12;;;2.28;;
44304;SDS011;30019;50.576;8.568;2022-08-27T16:08:53;3.08;;;2.22;;
44304;SDS011;30019;50.576;8.568;2022-08-27T16:11:19;4.03;;;2.20;;
44304;SDS011;30019;50.576;8.568;2022-08-27T16:13:46;5.05;;;2.33;;
44304;SDS011;30019;50.576;8.568;2022-08-27T16:16:12;2.35;;;2.08;;